Abbeville, Alabama
Current Conditions -  °F | °C
As of 5:53 AM on Saturday 20 Dec 2014 (Local Time) from KDHN Reporting Station
Overcast Overcast  
Wind Chill: 43°   Ceiling: 4800
Heat Index: 47°   Visibility: 8mi
Dew Point: 46°   Wind: 9mph
Humidity: 97%   Direction: 20°NNE
Pressure: 30.18"   Gusts: NA
Location:  31.57°N, 85.25°W
Report Text: KDHN 201153Z AUTO 02008KT 8SM FEW004 OVC048 08/08 A3018 RMK AO2 RAE50 SLP218 P0000 60004 70025 T00830078 10083 20078 53014
Loading
Personal Weather Stations






























Interactive Weather Map New forecast layout! Learn more

10-Day Weather Forecast

Advertisements
Track Severe Weather on mobile